Kelseyville, California
Current Conditions -  °F | °C
As of 1:56 PM on Sunday 25 Jan 2015 (Local Time) from KUKI Reporting Station
Clear Clear  
Wind Chill: 71°   Ceiling: Unl
Heat Index: 71°   Visibility: 10mi
Dew Point: 45°   Wind: 0mph
Humidity: 39%   Direction: NA
Pressure: 30.02"   Gusts: NA
Location:  38.98°N, 122.84°W
Report Text: KUKI 252156Z AUTO 00000KT 10SM CLR 22/07 A3002 RMK AO2 SLP161 T02170072
Loading
Personal Weather Stations






























Interactive Weather Map New forecast layout! Learn more

10-Day Weather Forecast

Advertisements
Track Severe Weather on mobile